Timeline UpdatesTrip UpdatesNews PostsPvt PostsTravel TipsAdmin PostsConv PostsFollowed PostsChat RequestsBlog PostsPNR Posts

Disclaimer
Search
 
 
Sat Apr 19, 2014 13:29:26 ISTHomeTrainsΣChainsAtlasPNRForumGalleryNewsFAQTripsMembersLoginFeedback
No Recent News for this Train
Other Trains in the News **new
Latest...
From 11.09.2013 to 9.11.2013........19024 Firozpur Janata Express will be terminated at Dadar.
Thu Sep 05, 2013 (07:07PM)
⇐ Return Journey: Train# 19023

19024/Firozpur - Mumbai Central Janta Express

Dec 24 2013 (8:25PM)
Change Departure Station:
Change Arrival Station:
Post a Train Travel TipPost a Train Travel Tip **new
Post a Comment/Question/Picture/VideoPost a Comment/Question/Picture/Video
Inaugural Run
Mon Oct 01, 1956
Pantry/Catering
✕ NO Pantry Car
✓ Catering Avbl
Catering from local vendors
RSA - Rake Sharing
Dedicated Rake.No RSA
Rake/Coach Composition
LOCO<SLR,GS,GS(MST),GS,S-1, S-2, S-3, S-4, S-5, S-6, S-7, S-8,GS,SLR,HCPV=14+1
Loco
TKD WDP-4/4B between FZR-NDLS, GZB WAP5 between NDLS-BCT
News    PNR    Forum    Time-Table    Availability    Fare Chart    Map    Arr/Dep History    Trips    Gallery    ΣChains    X/O    Timeline    
Travel Time: 7h 48m    22 halts    Distance: 316 km    Avg Speed: 40 km/hr
Type: Mail/Express
Zone: WR/Western
Departs @ 11:58 (Avg 31m late)
Platform# 2
SMTWTFS
Bharuch Junction/BH 
Arrives @ 19:46 (Avg 9m late)
Platform# 5
SMTWTFS
Mumbai Dadar Western/DDR 

22 halts. 65 intermediate Stations between Bharuch Junction and Mumbai Dadar Western

Show ALL intermediate Stations  Show Old Time-Table

#CodeStation NameX/OArrivesAvgDepartsAvgHaltPFDay#KmSpeedElevZoneAddress
1FZRFirozpur Cantt. Junction (5)  -05:10+1511-1450.781200mNRFirozpur Cantt 152001, Punjab
2FDKFaridkot (3)  05:34+2505:36+262m11-1418.555202mNRFaridkot, Punjab
3KKPKot Kapura Junction (3)  05:50+2705:52+262m11-1405.7650mNRKotkapura, Punjab
4GJUTGangsar Jaitu (3)  06:07+2606:09+262m11-1389.461207mNRJaitu, Punjab
5GNAGoneana Bhai Jagta (3)X  06:23+2506:25+272m11-1375.325206mNRGoniana, Punjab
6BTIBathinda Junction (6)  06:55+1307:05+1510m21-1363.082208mNRBathinda, Punjab
7MAURMaur  07:31+2607:33+262m--1-1327.4101220mNRMaur Mandi, Punjab
8KTKLKotli Kalan  07:39-07:41-2m--1-1317.340219mNRState Highway 12A, Punjab
9MSZMansa  07:54+2407:56+242m--1-1308.774222mNRMansa, Punjab
10BLZBudhlada  08:09+2608:11+262m--1-1292.671223mNRBudhlada, Punjab
11BRZBareta  08:24+2708:26+272m--1-1277.250223mNRBareta, Punjab
12JHLJakhal Junction  08:43+2408:45+262m--1-1263.067225mNRJakhal, Haryana
13TUNTohana (2)  08:56+2808:58+282m--1-1250.876232mNRTohana, Haryana
14NRWNarwana Junction (4)  09:18+3009:20+302m--1-1225.370235mNRWay to Narwana, Haryana
15UCAUchanaX  09:33+3009:35+302m--1-1210.145225mNRDistrict Jind, Haryana
16JINDJind Junction (3)  10:00+2410:05+235m--1-1191.470222mNR126102., Haryana
17JNAJulana  10:27+1910:29+192m--1-1165.752226mNRJulana, Haryana
18ROKRohtak Junction (3)  11:05+2211:08+223m--1-1134.363220mNRRohtak, Haryana
19ISMIsmaila Haryana  11:26-11:28-2m--1-1115.553221mNRNational Highway 10, Haryana
20SPZSampla  11:32+2411:34+262m--1-1112.072222mNRSampla, Haryana
21BGZBahadurgarh  11:49+2911:51+292m--1-1094.162220mNRBahadurgarh, Haryana
22NNONangloi  12:03+3212:05+332m--1-1081.648219mNRJJ Colony No 1, Delhi NCT
23MGLPMangolpuriX  12:09+012:11+02m--1-1078.326217mNROutter Ring Rd, Delhi NCT
24SSBShakur Basti  12:21+3112:23+332m--1-1074.132216mNRPitampura, Delhi NCT
25DKZDelhi KishanGanj (2)  12:36+2612:38+262m--1-1067.19220mNRSarai Rohilla, Delhi NCT
26NDLSNew Delhi (16)X13:05+2213:35+2330m71-1063.332215mNRAjmeri Gate/Paharganj, Delhi NCT
27NZMDelhi Hazrat Nizamuddin (7)O  13:49+3113:51+332m11-1055.937209mNRNizamuddin East/Sarai KaleKhan Bus Terminal, Delhi NCT
28OKAOkhla (4)X  13:57+3413:59+332m--1-1052.252221mNRIshwar Nagar Mathura Road, Delhi NCT
29TKDTuglakabad (4)XO  14:06+3414:08+352m11-1046.244213mNRNear Tughlakabad Metro Station, Delhi NCT
30FDBFaridabad (4)  14:23+3114:25+322m31-1035.127206mNRFaridabad, Haryana
31BVHBallabgarh (5)O  14:43+3314:45+332m--1-1027.039203mNRFaridabad, Haryana
32PWLPalwal (8)  15:18+2515:20+262m--1-1005.885200mNRPalwal, Haryana
33KSVKosi Kalan (3)XO  15:50+4815:52+512m21-963.456189mNCRKosi Kalan, Uttar Pradesh
34CHJChata (4)X  16:03+5016:05+512m--1-953.134185mNCRChhata, Uttar Pradesh
35MTJMathura Junction (10)  17:00+3217:05+395m31-921.980179mNCRMathura, Uttar Pradesh
36BTEBharatpur Junction (5)O  17:30+4617:35+465m31-888.472174mWCRBharatpur, Rajasthan
37BXNBayana Junction (3)X  18:10+4518:15+455m--1-846.491198mWCRBayana, Rajasthan
38FSPFateh SinghpuraX  18:28+5018:30+532m--1-826.744223mWCRState Highway 1, Rajasthan
39HANHindaun City (2)  18:48+4818:50+582m--1-813.561230mWCRKarauli, Rajasthan
40SMBJShri Mahabirji (3)XO  19:00+5719:02+572m--1-803.443240mWCRKarauli, Rajasthan
41GGCGangapur City (3)  19:50+4119:55+505m21-769.364270mWCRGangapur, Rajasthan
42NNWNarayanpur Tatwara (2)OT20:11+5220:12+531m--1-752.336256mWCRSawai Madhopur, Rajasthan
43MLZMalarna  20:40+3920:42+402m21-735.579236mWCRSawai Madhopur, Rajasthan
44SWMSawai Madhopur Junction (4)X  21:05+4721:10+545m21-705.487266mWCRSawai Madhopur, Rajasthan
45IDGIndargarh Sumerganj Mandi (2)  21:35+5921:37+1:012m--1-669.166247mWCRIndargarh, Rajasthan
46LKELakheri (3)X  21:47+1:0121:49+1:032m--1-658.145228mWCRBundi, Rajasthan
47KOTAKota Junction (5)  23:10+1:0123:20+1:0310m21-597.568256mWCRKota, Rajasthan
48RMARamganj Mandi Junction (3)X  00:23+1:0000:25+1:022m--2-526.357358mWCRRamganj Mandi, Rajasthan
49JHWJhalawar Road (3)XO  00:38+1:0000:40+1:022m--2-513.930361mWCRJhalawar City, Rajasthan
50BWMBhawani Mandi (3)X  01:13+4501:15+502m--2-497.474384mWCRBhawani Mandi, Madhya Pradesh
51SGZShamgarh (3)X  01:42+5301:47+535m--2-463.950463mWCRMandsaur, Madhya Pradesh
52SVASuwasra (2)O  02:03+5002:05+512m--2-450.540450mWCRSuwasra, Madhya Pradesh
53CMUChau Mahla (3)  02:28+4302:30+452m12-435.120426mWCRJhalawar, Rajasthan
54VMAVikramgarh Alot (2)X  03:36+1503:38+162m12-413.341443mWCRKota Division, Madhya Pradesh
55MEPMahidpur Road  04:13+904:15+122m--2-389.441493mWCRGogapur, Madhya Pradesh
56NADNagda Junction (4)X  04:40+1004:45+165m--2-372.475468mWRNagda, Madhya Pradesh
57KUHKhachrod (2)X  04:56+1804:58+182m--2-358.635497mWRUjjain, Madhya Pradesh
58RTMRatlam Junction (7)X  05:45+1506:00+1915m42-330.977495mWRRatlam, Madhya Pradesh
59BMIBamnia (2)  06:35+2406:37+242m--2-286.275392mWRBamnia, Madhya Pradesh
60THDRThandla Road (2)  06:59+2607:01+252m--2-258.668317mWRJhabua, Madhya Pradesh
61MGNMeghnagar (3)  07:08+2707:10+262m--2-250.680317mWRJhabua, Madhya Pradesh
62DHDDahod (3)X  07:35+3307:40+335m--2-217.573313mWRDahod, Gujarat
63LMKLimkheda  08:07+3308:09+322m--2-184.668205mWRLimkheda, Gujarat
64PPDPiplod Junction  08:16+3208:18+312m--2-176.689209mWRPiplod, Gujarat
65SATSant Road (2)X  08:26+3308:28+322m22-164.820169mWROrwara, Gujarat
66GDAGodhra Junction (3)X  09:29+809:34+115m12-144.474122mWRGodhra, Gujarat
67DRLDerol  09:53+1509:55+152m--2-120.87981mWRKalol, Gujarat
68SMLASamlaya Junction (3)  10:13+1410:15+142m--2-97.15367mWRVadodara, Gujarat
69BRCVadodara Junction (7)X10:45+1710:55+1710m12-70.58936mWRVadodara, Gujarat
70MYGMiyagam Karjan (2)  11:15+2311:17+222m22-40.78329mWRKarjan, Gujarat
71PLJPalej (4)  11:28+2611:30+262m--2-25.48029mWRPalej, Gujarat
72NIUNabipur (3)XT11:40+3111:42+302m--2-12.15224mWRNabipur, Gujarat
73BH»Bharuch Junction (5)»  11:56+2811:58+312m220.06219mWRBharuch, Gujarat
74AKVAnkleshwar Junction (4)O  12:07+3112:09+312m229.34819mWRAnkleshwar, Gujarat
75PAOPanoli (3)T12:22+2912:24+282m--219.66229mWRPanoli, Gujarat
76KSBKosamba Junction (3)XO  12:32+2912:34+282m2227.95830mWRKosamba, Gujarat
77KIMKim (2)XT12:42+2312:44+222m2235.73118mWRNH 8, Gujarat
78STSurat (4)X  13:30+1513:35+175m2259.37119mWRSurat 395001, Gujarat
79MRLMaroli (3)  13:53+2413:55+252m2280.44615mWRMaroli, Gujarat
80NVSNavsari (3)  14:06+2414:08+242m2288.95514mWRNavsari, Gujarat
81AMLAmalsad (3)X  14:25+2314:27+232m22104.53712mWRAmalsad, Gujarat
82BIMBilimora Junction (4)XO  14:36+2114:38+242m22110.13611mWRBilimora, Gujarat
83BLValsad (3)X  15:08+1915:10+232m32128.04615mWRValsad, Gujarat
84PADPardi (3)XT15:24+2215:26+212m--2138.75119mWRValsad, Gujarat
85UVDUdvada (3)T15:33+2015:35+202m--2144.65218mWRUdvada, Gujarat
86VAPIVapi (3)XO  15:46+2015:48+262m22154.23427mWRVapi, Gujarat
87BLDBhilad (3)XO  16:08+1816:10+172m--2165.56933mWRBhilad, Gujarat
88SJNSanjan (3)XO  16:20+1816:22+182m--2177.15422mWRSanjan, Gujarat
89UBRUmbargam Road (3)XO  16:28+1816:30+182m--2182.44730mWRUmbergaon, Gujarat
90DRDDahanu Road (5)X  16:56+916:58+132m--2202.77412mWRDahanu, Maharashtra
91VGNVangaon (3)XO  17:08+1317:10+122m--2215.07111mWRThane, Maharashtra
92BORBoisar (3)XO  17:18+1317:20+132m32224.56117mWRBoisar Tel.no-02525-266626, Maharashtra
93PLGPalghar (3)XO  17:31+1217:33+132m22235.75719mWRPalghar, Maharashtra
94VRVirar (8)XO  18:06+718:08+92m42266.9526mWRThane, Maharashtra
95BVIMumbai Borivali (8)  18:38+1018:40+162m52292.72219mWRMumbai - 400092, Maharashtra
96DDR•Mumbai Dadar Western (6)•  19:46+919:48+112m52316.4166mWRMumbai, Maharashtra
97BCTMumbai Central (9)  20:10+5-52322.4-3mWRMumbai-400 008, Maharashtra
Scroll to Top
Scroll to Bottom